createdAt,value
2024-02-10T00:00:36.938Z,4.57
2024-02-10T00:03:41.129Z,6.10
2024-02-10T00:06:46.959Z,7.45
2024-02-10T00:09:49.543Z,6.03
2024-02-10T00:13:01.643Z,10.27
2024-02-10T00:16:04.941Z,5.82
2024-02-10T00:19:11.861Z,4.70
2024-02-10T00:22:14.802Z,3.67
2024-02-10T00:25:17.533Z,5.88
2024-02-10T00:28:23.514Z,7.47
2024-02-10T00:31:26.366Z,7.03
2024-02-10T00:34:30.111Z,6.43
2024-02-10T00:37:32.924Z,4.57
2024-02-10T00:40:35.473Z,5.65
2024-02-10T00:43:43.589Z,4.60
2024-02-10T00:46:46.223Z,4.80
2024-02-10T00:49:49.290Z,6.33
2024-02-10T00:52:52.291Z,6.65
2024-02-10T00:55:54.981Z,5.47
2024-02-10T00:58:57.645Z,4.80
2024-02-10T01:02:01.666Z,8.85
2024-02-10T01:05:06.822Z,7.00
2024-02-10T01:08:10.002Z,7.40
2024-02-10T01:11:12.902Z,4.55
2024-02-10T01:14:15.619Z,4.97
2024-02-10T01:17:18.184Z,5.20
2024-02-10T01:20:20.800Z,13.23
2024-02-10T01:23:23.688Z,8.75
2024-02-10T01:26:29.144Z,7.22
2024-02-10T01:29:31.718Z,7.07
2024-02-10T01:32:34.338Z,6.68
2024-02-10T01:35:36.835Z,9.93
2024-02-10T01:38:43.943Z,6.13
2024-02-10T01:41:46.481Z,5.95
2024-02-10T01:44:49.239Z,7.55
2024-02-10T01:47:51.820Z,8.25
2024-02-10T01:50:54.408Z,6.50
2024-02-10T01:53:57.864Z,3.05
2024-02-10T01:57:01.230Z,8.38
2024-02-10T02:00:08.026Z,9.60
2024-02-10T02:03:10.790Z,6.30
2024-02-10T02:06:18.622Z,9.90
2024-02-10T02:09:21.715Z,4.47
2024-02-10T02:12:24.205Z,6.45
2024-02-10T02:15:31.049Z,5.90
2024-02-10T02:18:33.677Z,6.75
2024-02-10T02:21:36.252Z,5.40
2024-02-10T02:24:39.466Z,7.40
2024-02-10T02:27:42.020Z,8.77
2024-02-10T02:30:45.236Z,7.07
2024-02-10T02:33:47.746Z,8.65
2024-02-10T02:36:51.102Z,8.87
2024-02-10T02:39:53.579Z,10.35
2024-02-10T02:42:57.279Z,7.82
2024-02-10T02:45:59.739Z,7.55
2024-02-10T02:49:02.466Z,8.38
2024-02-10T02:52:08.925Z,6.63
2024-02-10T02:55:13.014Z,7.43
2024-02-10T02:58:16.003Z,8.02
2024-02-10T03:01:18.549Z,5.90
2024-02-10T03:04:21.223Z,8.30
2024-02-10T03:07:23.911Z,7.20
2024-02-10T03:10:26.652Z,8.75
2024-02-10T03:13:29.208Z,7.25
2024-02-10T03:16:34.885Z,5.75
2024-02-10T03:19:38.211Z,7.70
2024-02-10T03:22:40.980Z,6.83
2024-02-10T03:25:43.575Z,5.07
2024-02-10T03:28:46.183Z,6.85
2024-02-10T03:31:48.765Z,7.50
2024-02-10T03:34:51.589Z,6.60
2024-02-10T03:37:54.352Z,8.40
2024-02-10T03:40:56.867Z,10.27
2024-02-10T03:43:59.540Z,7.78
2024-02-10T03:47:02.874Z,7.85
2024-02-10T03:50:06.068Z,5.07
2024-02-10T03:53:11.007Z,13.10
2024-02-10T03:56:13.683Z,4.03
2024-02-10T03:59:16.414Z,5.55
2024-02-10T04:02:20.024Z,7.35
2024-02-10T04:05:23.513Z,4.93
2024-02-10T04:08:26.417Z,8.37
2024-02-10T04:11:29.087Z,9.02
2024-02-10T04:14:31.610Z,18.00
2024-02-10T04:17:34.271Z,9.45
2024-02-10T04:20:36.771Z,10.63
2024-02-10T04:23:41.370Z,8.67
2024-02-10T04:26:44.992Z,12.48
2024-02-10T04:29:47.513Z,9.25
2024-02-10T04:32:50.325Z,10.00
2024-02-10T04:35:53.481Z,10.60
2024-02-10T04:38:58.021Z,11.30
2024-02-10T04:42:00.562Z,8.95
2024-02-10T04:45:03.063Z,12.07
2024-02-10T04:48:09.028Z,12.13
2024-02-10T04:51:14.837Z,7.30
2024-02-10T04:54:17.375Z,11.90
2024-02-10T04:57:29.717Z,12.90
2024-02-10T05:00:33.637Z,11.90
2024-02-10T05:03:36.446Z,8.20
2024-02-10T05:06:38.994Z,8.52
2024-02-10T05:09:42.483Z,12.20
2024-02-10T05:12:48.399Z,8.27
2024-02-10T05:15:51.016Z,9.48
2024-02-10T05:18:55.573Z,11.10
2024-02-10T05:21:58.143Z,14.57
2024-02-10T05:25:04.605Z,8.50
2024-02-10T05:28:10.121Z,10.18
2024-02-10T05:31:12.574Z,17.30
2024-02-10T05:34:16.227Z,8.55
2024-02-10T05:37:18.769Z,12.18
2024-02-10T05:40:22.493Z,14.60
2024-02-10T05:43:25.115Z,12.25
2024-02-10T05:46:29.339Z,8.13
2024-02-10T05:49:31.861Z,11.63
2024-02-10T05:52:36.007Z,9.75
2024-02-10T05:55:39.230Z,14.90
2024-02-10T05:58:41.865Z,13.23
2024-02-10T06:01:48.443Z,16.25
2024-02-10T06:04:54.196Z,11.48
2024-02-10T06:07:57.622Z,8.93
2024-02-10T06:11:00.451Z,8.60
2024-02-10T06:14:03.162Z,9.73
2024-02-10T06:17:05.784Z,10.52
2024-02-10T06:20:13.705Z,9.50
2024-02-10T06:23:18.320Z,11.10
2024-02-10T06:26:20.912Z,13.30
2024-02-10T06:29:23.516Z,12.40
2024-02-10T06:32:26.166Z,10.05
2024-02-10T06:35:28.692Z,13.98
2024-02-10T06:38:33.807Z,12.05
2024-02-10T06:41:36.576Z,15.50
2024-02-10T06:44:40.975Z,12.30
2024-02-10T06:47:47.079Z,8.73
2024-02-10T06:50:51.011Z,16.27
2024-02-10T06:53:53.580Z,12.27
2024-02-10T06:56:58.763Z,13.93
2024-02-10T07:00:16.091Z,10.25
2024-02-10T07:03:21.663Z,13.05
2024-02-10T07:06:28.917Z,12.40
2024-02-10T07:09:31.461Z,17.42
2024-02-10T07:12:34.079Z,11.77
2024-02-10T07:15:36.641Z,11.18
2024-02-10T07:18:43.099Z,13.27
2024-02-10T07:21:46.559Z,10.50
2024-02-10T07:24:50.274Z,8.00
2024-02-10T07:27:52.800Z,10.53
2024-02-10T07:30:55.281Z,11.10
2024-02-10T07:34:00.466Z,13.02
2024-02-10T07:37:05.512Z,9.18
2024-02-10T07:40:12.309Z,10.57
2024-02-10T07:43:17.180Z,9.10
2024-02-10T07:46:20.165Z,14.00
2024-02-10T07:49:24.052Z,8.35
2024-02-10T07:52:32.381Z,8.93
2024-02-10T07:55:37.065Z,11.93
2024-02-10T07:58:41.274Z,8.57
2024-02-10T08:01:43.912Z,8.88
2024-02-10T08:04:46.749Z,11.15
2024-02-10T08:07:49.416Z,7.85
2024-02-10T08:10:52.022Z,9.02
2024-02-10T08:13:55.184Z,9.70
2024-02-10T08:16:57.702Z,6.60
2024-02-10T08:20:01.276Z,8.00
2024-02-10T08:23:04.311Z,5.80
2024-02-10T08:26:07.376Z,8.90
2024-02-10T08:29:10.058Z,7.83
2024-02-10T08:32:14.454Z,7.82
2024-02-10T08:35:17.472Z,10.10
2024-02-10T08:38:23.076Z,8.52
2024-02-10T08:41:26.555Z,8.88
2024-02-10T08:44:29.274Z,8.57
2024-02-10T08:47:32.004Z,7.68
2024-02-10T08:50:34.594Z,10.40
2024-02-10T08:53:37.218Z,5.63
2024-02-10T08:56:42.788Z,6.68
2024-02-10T08:59:47.103Z,7.07
2024-02-10T09:02:52.202Z,7.07
2024-02-10T09:05:54.867Z,6.65
2024-02-10T09:08:57.344Z,8.63
2024-02-10T09:11:59.847Z,3.83
2024-02-10T09:15:02.407Z,8.00
2024-02-10T09:18:05.572Z,5.82
2024-02-10T09:21:08.117Z,6.15
2024-02-10T09:24:11.029Z,6.70
2024-02-10T09:27:13.690Z,7.55
2024-02-10T09:30:16.586Z,10.67
2024-02-10T09:33:23.048Z,4.05
2024-02-10T09:36:27.515Z,5.50
2024-02-10T09:39:29.999Z,7.35
2024-02-10T09:42:33.797Z,7.60
2024-02-10T09:45:38.393Z,5.53
2024-02-10T09:48:52.973Z,5.30
2024-02-10T09:51:55.783Z,6.47
2024-02-10T09:54:58.336Z,5.05
2024-02-10T09:58:05.785Z,5.55
2024-02-10T10:01:11.664Z,8.27
2024-02-10T10:04:14.628Z,5.07
2024-02-10T10:07:17.118Z,5.18
2024-02-10T10:10:21.185Z,6.03
2024-02-10T10:13:25.448Z,6.68
2024-02-10T10:16:27.998Z,4.27
2024-02-10T10:19:31.347Z,3.60
2024-02-10T10:22:38.155Z,7.57
2024-02-10T10:25:40.712Z,5.28
2024-02-10T10:28:49.459Z,8.23
2024-02-10T10:31:55.015Z,9.53
2024-02-10T10:34:58.448Z,7.68
2024-02-10T10:38:01.821Z,8.73
2024-02-10T10:41:05.614Z,7.40
2024-02-10T10:44:08.345Z,5.10
2024-02-10T10:47:11.810Z,6.53
2024-02-10T10:50:14.509Z,10.30
2024-02-10T10:53:17.995Z,10.40
2024-02-10T10:56:25.081Z,10.65
2024-02-10T10:59:27.777Z,7.32
2024-02-10T11:02:41.002Z,8.27
2024-02-10T11:05:50.736Z,8.98
2024-02-10T11:08:56.491Z,7.43
2024-02-10T11:11:59.050Z,7.10
2024-02-10T11:15:01.684Z,4.82
2024-02-10T11:18:04.957Z,3.47
2024-02-10T11:21:20.218Z,4.53
2024-02-10T11:24:31.190Z,5.47
2024-02-10T11:27:35.235Z,4.63
2024-02-10T11:30:37.817Z,4.65
2024-02-10T11:33:40.507Z,3.13
2024-02-10T11:36:56.456Z,4.80
2024-02-10T11:39:59.331Z,2.92
2024-02-10T11:43:03.095Z,4.50
2024-02-10T11:46:05.692Z,6.85
2024-02-10T11:49:11.964Z,3.40
2024-02-10T11:52:15.496Z,3.13
2024-02-10T11:55:19.897Z,5.00
2024-02-10T11:58:24.827Z,4.18
2024-02-10T12:01:32.437Z,4.53
2024-02-10T12:04:35.513Z,5.30
2024-02-10T12:07:39.254Z,5.05
2024-02-10T12:10:43.320Z,6.38
2024-02-10T12:13:47.192Z,5.82
2024-02-10T12:16:49.830Z,5.68
2024-02-10T12:19:53.975Z,7.13
2024-02-10T12:22:57.072Z,5.07
2024-02-10T12:26:03.357Z,4.45
2024-02-10T12:29:12.883Z,5.47
2024-02-10T12:32:16.581Z,1.95
2024-02-10T12:35:21.247Z,2.93
2024-02-10T12:38:27.133Z,3.90
2024-02-10T12:41:29.738Z,3.85
2024-02-10T12:44:33.034Z,5.63
2024-02-10T12:47:38.982Z,4.55
2024-02-10T12:50:41.943Z,5.10
2024-02-10T12:53:44.770Z,3.17
2024-02-10T12:56:47.433Z,9.55
2024-02-10T12:59:50.420Z,5.90
2024-02-10T13:02:53.231Z,5.72
2024-02-10T13:05:56.653Z,4.47
2024-02-10T13:08:59.380Z,4.68
2024-02-10T13:12:02.115Z,3.67
2024-02-10T13:15:04.993Z,2.38
2024-02-10T13:18:07.890Z,2.80
2024-02-10T13:21:10.562Z,3.83
2024-02-10T13:24:13.131Z,4.85
2024-02-10T13:27:15.716Z,3.95
2024-02-10T13:30:19.979Z,3.33
2024-02-10T13:33:22.490Z,4.30
2024-02-10T13:36:36.972Z,6.93
2024-02-10T13:40:00.076Z,2.97
2024-02-10T13:43:21.900Z,5.28
2024-02-10T13:46:43.136Z,6.97
2024-02-10T13:50:04.686Z,4.05
2024-02-10T13:53:25.561Z,5.47
2024-02-10T13:56:46.360Z,9.20
2024-02-10T13:59:49.617Z,7.95
2024-02-10T14:03:03.121Z,6.20
2024-02-10T14:06:10.581Z,9.27
2024-02-10T14:09:13.343Z,10.47
2024-02-10T14:12:15.894Z,5.75
2024-02-10T14:15:21.873Z,12.63
2024-02-10T14:18:27.567Z,5.28
2024-02-10T14:21:33.919Z,10.68
2024-02-10T14:24:38.074Z,6.77
2024-02-10T14:27:43.958Z,4.88
2024-02-10T14:30:49.041Z,3.42
2024-02-10T14:33:54.859Z,5.35
2024-02-10T14:37:08.501Z,6.20
2024-02-10T14:40:17.215Z,8.87
2024-02-10T14:43:20.306Z,7.32
2024-02-10T14:46:23.072Z,9.40
2024-02-10T14:49:25.739Z,4.47
2024-02-10T14:52:28.313Z,6.18
2024-02-10T14:55:31.910Z,6.07
2024-02-10T14:58:34.927Z,3.53
2024-02-10T15:01:37.624Z,5.50
2024-02-10T15:04:44.655Z,6.30
2024-02-10T15:07:47.316Z,4.93
2024-02-10T15:10:50.533Z,6.00
2024-02-10T15:13:53.104Z,5.05
2024-02-10T15:16:55.632Z,3.97
2024-02-10T15:20:00.513Z,7.20
2024-02-10T15:23:03.120Z,8.70
2024-02-10T15:26:05.782Z,4.90
2024-02-10T15:29:08.488Z,4.57
2024-02-10T15:32:11.314Z,7.60
2024-02-10T15:35:15.348Z,7.78
2024-02-10T15:38:22.318Z,4.70
2024-02-10T15:41:24.966Z,5.43
2024-02-10T15:44:31.915Z,5.18
2024-02-10T15:47:34.437Z,4.35
2024-02-10T15:50:37.379Z,7.10
2024-02-10T15:53:43.007Z,7.85
2024-02-10T15:56:45.654Z,10.17
2024-02-10T15:59:48.400Z,7.68
2024-02-10T16:02:51.126Z,7.18
2024-02-10T16:05:55.330Z,5.38
2024-02-10T16:09:00.285Z,6.97
2024-02-10T16:12:05.984Z,8.20
2024-02-10T16:15:09.429Z,5.25
2024-02-10T16:18:15.519Z,5.20
2024-02-10T16:21:27.129Z,8.00
2024-02-10T16:24:29.938Z,4.35
2024-02-10T16:27:32.466Z,6.63
2024-02-10T16:30:35.744Z,5.00
2024-02-10T16:33:38.275Z,7.95
2024-02-10T16:36:43.072Z,8.73
2024-02-10T16:39:47.099Z,12.13
2024-02-10T16:42:49.650Z,9.07
2024-02-10T16:45:52.174Z,12.93
2024-02-10T16:48:57.548Z,11.80
2024-02-10T16:52:00.148Z,9.52
2024-02-10T16:55:02.701Z,10.02
2024-02-10T16:58:13.906Z,9.63
2024-02-10T17:01:16.532Z,9.65
2024-02-10T17:04:19.137Z,7.03
2024-02-10T17:07:22.927Z,7.50
2024-02-10T17:10:25.625Z,6.25
2024-02-10T17:13:29.859Z,7.53
2024-02-10T17:16:32.812Z,6.47
2024-02-10T17:19:35.560Z,5.53
2024-02-10T17:22:38.298Z,10.80
2024-02-10T17:25:44.628Z,4.63
2024-02-10T17:28:47.323Z,6.53
2024-02-10T17:31:51.554Z,8.55
2024-02-10T17:34:55.946Z,6.43
2024-02-10T17:38:06.637Z,5.85
2024-02-10T17:41:11.881Z,4.65
2024-02-10T17:44:15.018Z,7.07
2024-02-10T17:47:19.202Z,6.28
2024-02-10T17:50:26.192Z,8.82
2024-02-10T17:53:30.054Z,7.57
2024-02-10T17:56:33.502Z,6.78
2024-02-10T17:59:37.457Z,8.27
2024-02-10T18:02:40.037Z,8.00
2024-02-10T18:05:42.795Z,5.55
2024-02-10T18:08:45.476Z,10.52
2024-02-10T18:11:48.136Z,8.90
2024-02-10T18:14:50.722Z,9.50
2024-02-10T18:17:53.344Z,9.13
2024-02-10T18:20:55.978Z,7.00
2024-02-10T18:23:58.462Z,7.85
2024-02-10T18:27:01.511Z,6.40
2024-02-10T18:30:04.884Z,5.50
2024-02-10T18:33:07.666Z,10.80
2024-02-10T18:36:11.187Z,8.27
2024-02-10T18:39:13.699Z,11.93
2024-02-10T18:42:16.349Z,13.13
2024-02-10T18:45:18.896Z,8.23
2024-02-10T18:48:21.681Z,8.43
2024-02-10T18:51:24.363Z,11.60
2024-02-10T18:54:26.920Z,12.32
2024-02-10T18:57:30.052Z,19.25
2024-02-10T19:00:33.969Z,12.10
2024-02-10T19:03:37.262Z,22.45
2024-02-10T19:06:39.930Z,17.05
2024-02-10T19:09:48.107Z,14.18
2024-02-10T19:12:51.041Z,12.07
2024-02-10T19:15:53.642Z,12.50
2024-02-10T19:18:57.329Z,11.13
2024-02-10T19:22:01.146Z,8.70
2024-02-10T19:25:08.388Z,8.32
2024-02-10T19:28:13.310Z,9.45
2024-02-10T19:31:18.604Z,10.07
2024-02-10T19:34:21.714Z,27.63
2024-02-10T19:37:25.431Z,17.60
2024-02-10T19:40:27.989Z,23.67
2024-02-10T19:43:31.865Z,20.77
2024-02-10T19:46:37.637Z,15.63
2024-02-10T19:49:40.405Z,14.27
2024-02-10T19:52:43.388Z,17.55
2024-02-10T19:55:48.286Z,20.65
2024-02-10T19:58:52.688Z,29.80
2024-02-10T20:01:57.012Z,35.47
2024-02-10T20:05:01.057Z,21.98
2024-02-10T20:08:09.133Z,12.73
2024-02-10T20:11:11.960Z,8.60
2024-02-10T20:14:15.050Z,9.43
2024-02-10T20:17:18.343Z,19.23
2024-02-10T20:20:22.498Z,21.58
2024-02-10T20:23:25.207Z,18.45
2024-02-10T20:26:27.776Z,13.32
2024-02-10T20:29:34.917Z,15.68
2024-02-10T20:32:37.620Z,11.70
2024-02-10T20:35:43.097Z,11.30
2024-02-10T20:38:45.786Z,11.57
2024-02-10T20:41:48.357Z,12.57
2024-02-10T20:44:50.905Z,12.77
2024-02-10T20:47:53.667Z,16.73
2024-02-10T20:50:56.149Z,13.10
2024-02-10T20:54:00.049Z,12.65
2024-02-10T20:57:03.476Z,14.48
2024-02-10T21:00:08.594Z,13.40
2024-02-10T21:03:11.394Z,10.10
2024-02-10T21:06:14.639Z,7.72
2024-02-10T21:09:17.275Z,10.45
2024-02-10T21:12:21.117Z,11.35
2024-02-10T21:15:25.163Z,7.75
2024-02-10T21:18:28.360Z,8.27
2024-02-10T21:21:31.010Z,10.90
2024-02-10T21:24:33.554Z,9.57
2024-02-10T21:27:36.129Z,10.88
2024-02-10T21:30:38.822Z,8.45
2024-02-10T21:33:41.850Z,9.07
2024-02-10T21:36:44.658Z,6.60
2024-02-10T21:39:47.103Z,7.13
2024-02-10T21:42:49.929Z,5.20
2024-02-10T21:45:54.177Z,12.75
2024-02-10T21:48:56.729Z,5.63
2024-02-10T21:52:00.092Z,6.18
2024-02-10T21:55:02.692Z,7.70
2024-02-10T21:58:06.923Z,6.28
2024-02-10T22:01:10.114Z,5.88
2024-02-10T22:04:12.833Z,7.37
2024-02-10T22:07:15.380Z,6.78
2024-02-10T22:10:18.255Z,8.05
2024-02-10T22:13:20.792Z,21.30
2024-02-10T22:16:23.264Z,9.88
2024-02-10T22:19:26.491Z,8.77
2024-02-10T22:22:30.359Z,11.27
2024-02-10T22:25:33.287Z,10.02
2024-02-10T22:28:41.254Z,9.73
2024-02-10T22:31:45.162Z,8.05
2024-02-10T22:34:47.764Z,7.60
2024-02-10T22:37:57.636Z,9.93
2024-02-10T22:41:00.451Z,8.70
2024-02-10T22:44:03.096Z,9.50
2024-02-10T22:47:10.475Z,10.15
2024-02-10T22:50:19.089Z,6.37
2024-02-10T22:53:23.460Z,5.55
2024-02-10T22:56:26.395Z,5.78
2024-02-10T22:59:28.954Z,9.23
2024-02-10T23:02:32.459Z,8.13
2024-02-10T23:05:36.520Z,11.43
2024-02-10T23:08:39.506Z,7.68
2024-02-10T23:11:43.231Z,11.38
2024-02-10T23:14:47.113Z,9.30
2024-02-10T23:17:50.732Z,9.73
2024-02-10T23:20:53.424Z,14.67
2024-02-10T23:24:00.010Z,11.88
2024-02-10T23:27:02.776Z,9.38
2024-02-10T23:30:05.909Z,8.07
2024-02-10T23:33:08.461Z,12.43
2024-02-10T23:36:26.038Z,9.50
2024-02-10T23:39:28.735Z,12.13
2024-02-10T23:42:32.565Z,7.82
2024-02-10T23:45:36.909Z,7.10
2024-02-10T23:48:39.782Z,10.70
2024-02-10T23:51:42.576Z,9.17
2024-02-10T23:54:49.214Z,12.23
2024-02-10T23:57:51.708Z,6.65
